RYR99BQ LFRS-EGPH
Flight info
| Callsign | RYR99BQ |
|---|---|
| Flight time | N/A |
| Altitude | 38000 |
| Route | BALNI DCT RINSO UN867 VASUX DCT TNT UN57 POL UN601 RIBEL DCT INPIP |
| Aircraft | B738/M-SDE3FGILRWY/SB1 |
Departure
| Time | 2026-05-07 12:09 |
|---|---|
| Airport | Nantes Atlantique Airport (LFRS) |
Arrival
| Time | N/A |
|---|---|
| Airport | Edinburgh Airport (EGPH) |
| Time | Latitude | Longitude | Altitude | Speed | Heading |
|---|---|---|---|---|---|
| 2026-05-07 11:38 | 47.15614 | -1.60040 | 99 ft | 0 kts | 44° |
| 2026-05-07 12:02 | 47.15603 | -1.60056 | 97 ft | 4 kts | 44° |
| 2026-05-07 12:02 | 47.15584 | -1.60083 | 97 ft | 4 kts | 41° |
| 2026-05-07 12:02 | 47.15563 | -1.60105 | 97 ft | 4 kts | 10° |
| 2026-05-07 12:03 | 47.15550 | -1.60103 | 98 ft | 2 kts | 297° |
| 2026-05-07 12:03 | 47.15548 | -1.60097 | 97 ft | 1 kts | 297° |
| 2026-05-07 12:05 | 47.15555 | -1.60117 | 98 ft | 5 kts | 297° |
| 2026-05-07 12:06 | 47.15584 | -1.60199 | 100 ft | 13 kts | 297° |
| 2026-05-07 12:06 | 47.15642 | -1.60324 | 98 ft | 16 kts | 319° |
| 2026-05-07 12:06 | 47.15727 | -1.60426 | 97 ft | 14 kts | 327° |
| 2026-05-07 12:06 | 47.15795 | -1.60442 | 97 ft | 10 kts | 28° |
| 2026-05-07 12:07 | 47.15868 | -1.60387 | 95 ft | 13 kts | 27° |
| 2026-05-07 12:07 | 47.15963 | -1.60315 | 93 ft | 17 kts | 27° |
| 2026-05-07 12:07 | 47.16065 | -1.60237 | 93 ft | 16 kts | 27° |
| 2026-05-07 12:07 | 47.16164 | -1.60161 | 92 ft | 16 kts | 27° |
| 2026-05-07 12:08 | 47.16262 | -1.60086 | 93 ft | 17 kts | 27° |
| 2026-05-07 12:08 | 47.16355 | -1.60063 | 89 ft | 15 kts | 344° |
| 2026-05-07 12:08 | 47.16444 | -1.60137 | 87 ft | 15 kts | 291° |
| 2026-05-07 12:08 | 47.16391 | -1.60255 | 90 ft | 19 kts | 208° |
| 2026-05-07 12:09 | 47.16067 | -1.60502 | 93 ft | 88 kts | 207° |
| 2026-05-07 12:09 | 47.15322 | -1.61071 | 96 ft | 150 kts | 207° |
| 2026-05-07 12:09 | 47.14302 | -1.61875 | 471 ft | 176 kts | 208° |
| 2026-05-07 12:09 | 47.13241 | -1.62803 | 1276 ft | 180 kts | 205° |
| 2026-05-07 12:10 | 47.12125 | -1.63701 | 2011 ft | 189 kts | 212° |
| 2026-05-07 12:10 | 47.11295 | -1.65344 | 2263 ft | 219 kts | 254° |
| 2026-05-07 12:10 | 47.11398 | -1.67644 | 2566 ft | 240 kts | 291° |
| 2026-05-07 12:10 | 47.12454 | -1.69721 | 2806 ft | 264 kts | 323° |
| 2026-05-07 12:11 | 47.14122 | -1.70853 | 3473 ft | 268 kts | 343° |
| 2026-05-07 12:11 | 47.15927 | -1.71653 | 4281 ft | 272 kts | 342° |
| 2026-05-07 12:11 | 47.17706 | -1.72538 | 5232 ft | 271 kts | 341° |
| 2026-05-07 12:11 | 47.19494 | -1.73490 | 6089 ft | 277 kts | 340° |
| 2026-05-07 12:12 | 47.21246 | -1.74446 | 6878 ft | 283 kts | 340° |
| 2026-05-07 12:12 | 47.23080 | -1.75156 | 7790 ft | 282 kts | 354° |
| 2026-05-07 12:12 | 47.25062 | -1.75042 | 8594 ft | 285 kts | 6° |
| 2026-05-07 12:12 | 47.27037 | -1.74646 | 9397 ft | 288 kts | 8° |
| 2026-05-07 12:13 | 47.29040 | -1.74193 | 10053 ft | 293 kts | 8° |
| 2026-05-07 12:13 | 47.31101 | -1.73728 | 10404 ft | 310 kts | 7° |
| 2026-05-07 12:13 | 47.33308 | -1.73244 | 10594 ft | 331 kts | 7° |
| 2026-05-07 12:13 | 47.35634 | -1.72748 | 11012 ft | 342 kts | 7° |
| 2026-05-07 12:14 | 47.38005 | -1.72252 | 11644 ft | 346 kts | 7° |
| 2026-05-07 12:14 | 47.40310 | -1.71777 | 12294 ft | 350 kts | 7° |
| 2026-05-07 12:14 | 47.42739 | -1.71280 | 12957 ft | 355 kts | 6° |
| 2026-05-07 12:14 | 47.45196 | -1.70780 | 13630 ft | 359 kts | 6° |
| 2026-05-07 12:15 | 47.47691 | -1.70273 | 14270 ft | 363 kts | 6° |
| 2026-05-07 12:15 | 47.50210 | -1.69762 | 14925 ft | 367 kts | 7° |
| 2026-05-07 12:15 | 47.52746 | -1.69246 | 15600 ft | 370 kts | 7° |
| 2026-05-07 12:15 | 47.55313 | -1.68723 | 16268 ft | 374 kts | 7° |
| 2026-05-07 12:16 | 47.57900 | -1.68196 | 16924 ft | 378 kts | 7° |
| 2026-05-07 12:16 | 47.60519 | -1.67663 | 17590 ft | 381 kts | 7° |
| 2026-05-07 12:16 | 47.63124 | -1.66870 | 18246 ft | 385 kts | 17° |
| 2026-05-07 12:16 | 47.65644 | -1.65482 | 18849 ft | 388 kts | 21° |